Time;durP1;ratioP1;P1;durP2;ratioP2;P2;SDS_P1;SDS_P2;PMS_P1;PMS_P2;Temp;Humidity;BMP_temperature;BMP_pressure;BME280_temperature;BME280_humidity;BME280_pressure;Samples;Min_cycle;Max_cycle;Signal;HPM_P1;HPM_P2
2021/12/03 00:01:10;;;;;;;20.83;2.53;;;;;;;24.61;51.45;98452.13;7314943;19;129552;-46
2021/12/03 00:03:36;;;;;;;17.42;2.22;;;;;;;24.71;50.51;98462.38;7313648;19;129695;-48
2021/12/03 00:06:02;;;;;;;16.13;2.10;;;;;;;24.71;50.28;98470.28;7312941;19;129132;-49
2021/12/03 00:08:27;;;;;;;12.27;1.95;;;;;;;24.68;50.67;98474.06;7315504;19;128967;-49
2021/12/03 00:10:58;;;;;;;12.27;1.70;;;;;;;24.59;50.59;98463.84;7316502;19;129509;-49
2021/12/03 00:13:24;;;;;;;13.63;2.13;;;;;;;24.58;50.73;98473.53;7315598;19;129583;-49
2021/12/03 00:15:51;;;;;;;25.05;3.15;;;;;;;24.53;50.60;98480.34;7312838;19;129561;-48
2021/12/03 00:18:16;;;;;;;;;;;;;;;24.39;51.66;98479.38;7313814;19;129508;-49
2021/12/03 00:20:42;;;;;;;15.50;2.22;;;;;;;24.35;51.70;98489.44;7315431;19;129645;-49
2021/12/03 00:23:07;;;;;;;15.37;2.17;;;;;;;24.36;51.81;98506.81;7314932;19;129561;-48
2021/12/03 00:25:34;;;;;;;13.90;1.97;;;;;;;24.29;52.26;98516.47;7313103;19;129132;-49
2021/12/03 00:28:00;;;;;;;17.00;2.03;;;;;;;24.24;52.77;98524.06;7314516;19;129626;-49
2021/12/03 00:30:25;;;;;;;18.37;2.63;;;;;;;24.24;52.64;98525.88;7315956;19;129955;-50
2021/12/03 00:32:51;;;;;;;19.57;2.27;;;;;;;24.20;52.26;98533.31;7314661;19;129651;-46
2021/12/03 00:35:17;;;;;;;13.68;1.77;;;;;;;24.18;53.16;98537.91;7313285;19;128961;-48
2021/12/03 00:37:46;;;;;;;;;;;;;;;24.17;54.41;98543.34;7315307;19;128753;-47
2021/12/03 00:40:14;;;;;;;9.20;1.42;;;;;;;24.20;53.01;98551.69;7314377;19;129163;-50
2021/12/03 00:42:40;;;;;;;16.17;2.22;;;;;;;24.19;53.45;98551.88;7315488;19;129604;-50
2021/12/03 00:45:08;;;;;;;17.60;2.27;;;;;;;24.15;53.98;98554.03;7313719;19;129149;-49
2021/12/03 00:47:33;;;;;;;17.20;2.53;;;;;;;24.17;52.84;98559.94;7315643;19;129374;-47
2021/12/03 00:49:59;;;;;;;13.90;1.93;;;;;;;24.16;53.86;98568.78;7313229;19;158336;-50
2021/12/03 00:52:24;;;;;;;19.05;2.85;;;;;;;24.20;52.13;98569.25;7311362;19;131110;-48
2021/12/03 00:54:49;;;;;;;11.70;1.60;;;;;;;24.16;52.38;98574.03;7312825;19;153337;-48
2021/12/03 00:57:15;;;;;;;26.70;3.17;;;;;;;24.13;52.27;98579.66;7309943;19;154088;-48
2021/12/03 00:59:41;;;;;;;14.70;2.03;;;;;;;24.17;52.36;98580.94;7313495;19;129615;-48
2021/12/03 01:02:07;;;;;;;19.98;2.55;;;;;;;24.13;52.97;98574.41;7312962;19;130262;-49
2021/12/03 01:04:32;;;;;;;17.87;2.27;;;;;;;24.15;52.27;98588.19;7309570;19;130467;-48
2021/12/03 01:06:58;;;;;;;21.05;2.78;;;;;;;24.15;53.19;98588.19;7314580;19;128817;-47
2021/12/03 01:09:23;;;;;;;26.90;3.20;;;;;;;24.09;53.92;98594.16;7309931;19;158554;-49
2021/12/03 01:11:50;;;;;;;12.77;1.60;;;;;;;24.03;53.26;98605.38;7313779;19;129503;-49
2021/12/03 01:14:15;;;;;;;;;;;;;;;23.96;54.53;98609.69;7311971;19;130618;-49
2021/12/03 01:16:41;;;;;;;13.95;2.03;;;;;;;23.95;53.61;98610.66;7312548;19;129411;-49
2021/12/03 01:19:07;;;;;;;14.10;1.87;;;;;;;23.95;53.85;98608.03;7310948;19;129148;-48
2021/12/03 01:21:33;;;;;;;26.40;3.70;;;;;;;23.99;52.73;98619.88;7311975;19;129958;-49
2021/12/03 01:23:58;;;;;;;20.60;2.55;;;;;;;24.07;52.10;98624.19;7307444;19;154662;-49
2021/12/03 01:26:24;;;;;;;24.35;2.97;;;;;;;24.13;52.47;98628.75;7309993;19;153459;-49
2021/12/03 01:28:49;;;;;;;27.67;3.77;;;;;;;24.21;52.30;98621.59;7310638;19;129852;-48
2021/12/03 01:31:16;;;;;;;11.82;1.63;;;;;;;24.25;52.08;98620.25;7312788;19;129599;-49
2021/12/03 01:33:43;;;;;;;26.13;3.47;;;;;;;24.35;51.84;98619.97;7309553;19;129167;-49
2021/12/03 01:36:09;;;;;;;22.13;2.83;;;;;;;24.34;51.59;98603.41;7308207;19;131005;-47
2021/12/03 01:38:34;;;;;;;15.48;2.25;;;;;;;24.48;51.48;98620.16;7312644;19;129612;-46
2021/12/03 01:41:00;;;;;;;31.05;3.95;;;;;;;24.53;50.59;98617.78;7309310;19;129961;-47
2021/12/03 01:43:26;;;;;;;19.27;2.83;;;;;;;24.53;50.68;98617.00;7311456;19;130213;-49
2021/12/03 01:45:54;;;;;;;17.20;2.13;;;;;;;24.49;51.12;98617.34;7308296;19;128945;-47
2021/12/03 01:48:20;;;;;;;23.13;2.97;;;;;;;24.46;50.63;98617.72;7312111;19;129572;-48
2021/12/03 01:50:46;;;;;;;16.20;2.30;;;;;;;24.43;51.33;98628.59;7310956;19;130016;-46
2021/12/03 01:53:16;;;;;;;20.30;2.83;;;;;;;24.38;51.55;98625.69;7311361;19;130182;-46
2021/12/03 01:55:43;;;;;;;14.07;2.20;;;;;;;24.33;51.53;98617.53;7307068;19;129296;-47
2021/12/03 01:58:09;;;;;;;15.60;2.22;;;;;;;24.26;51.69;98610.56;7307874;19;131065;-49
2021/12/03 02:00:40;;;;;;;16.02;2.42;;;;;;;24.20;52.63;98613.91;7305824;19;129917;-51
2021/12/03 02:03:07;;;;;;;20.55;2.72;;;;;;;24.03;52.31;98600.13;7305498;19;129275;-47
2021/12/03 02:05:34;;;;;;;26.30;3.63;;;;;;;24.08;52.80;98613.53;7302684;19;129674;-48
2021/12/03 02:07:59;;;;;;;15.05;2.33;;;;;;;24.04;53.12;98614.88;7307175;19;132346;-50
2021/12/03 02:10:25;;;;;;;16.60;3.03;;;;;;;23.95;52.82;98602.78;7301047;19;159872;-50
2021/12/03 02:12:51;;;;;;;13.13;2.20;;;;;;;23.98;53.14;98612.16;7309296;19;129474;-48
2021/12/03 02:15:17;;;;;;;20.38;3.05;;;;;;;23.97;53.50;98619.19;7304728;19;129497;-47
2021/12/03 02:17:42;;;;;;;19.13;2.80;;;;;;;23.95;53.67;98607.22;7307918;19;129933;-46
2021/12/03 02:20:12;;;;;;;35.20;5.03;;;;;;;23.95;54.87;98612.47;7305491;19;131020;-49
2021/12/03 02:22:39;;;;;;;17.52;2.10;;;;;;;23.96;53.73;98609.69;7307840;19;129176;-50
2021/12/03 02:25:07;;;;;;;17.67;2.35;;;;;;;23.97;54.08;98598.19;7304811;19;129193;-49
2021/12/03 02:27:32;;;;;;;17.23;2.47;;;;;;;23.95;53.47;98609.84;7303616;19;131627;-49
2021/12/03 02:29:58;;;;;;;23.27;3.03;;;;;;;23.96;53.22;98611.50;7309916;19;129131;-49
2021/12/03 02:32:23;;;;;;;32.25;4.45;;;;;;;23.92;52.93;98602.31;7306850;19;154657;-49
2021/12/03 02:34:49;;;;;;;28.73;3.93;;;;;;;23.94;54.01;98614.28;7299594;19;131026;-49
2021/12/03 02:37:14;;;;;;;19.53;2.63;;;;;;;23.90;53.46;98614.84;7306890;19;129063;-49
2021/12/03 02:39:39;;;;;;;36.43;5.03;;;;;;;23.78;53.37;98606.56;7304201;19;130713;-48
2021/12/03 02:42:05;;;;;;;34.25;3.85;;;;;;;23.80;54.21;98609.81;7305336;19;151898;-48
2021/12/03 02:44:30;;;;;;;21.80;2.80;;;;;;;23.77;53.36;98604.94;7305727;19;129340;-50
2021/12/03 02:46:55;;;;;;;23.15;3.22;;;;;;;23.79;53.20;98613.44;7303331;19;129305;-49
2021/12/03 02:49:21;;;;;;;22.38;3.03;;;;;;;23.74;53.42;98602.66;7307863;19;131778;-49
2021/12/03 02:51:46;;;;;;;14.63;2.33;;;;;;;23.90;52.41;98610.38;7304587;19;129236;-49
2021/12/03 02:54:11;;;;;;;10.93;1.55;;;;;;;23.97;52.17;98619.19;7306480;19;129573;-49
2021/12/03 02:56:37;;;;;;;56.42;7.85;;;;;;;24.04;52.02;98612.25;7305576;19;129390;-47
2021/12/03 02:59:03;;;;;;;30.15;3.38;;;;;;;24.13;52.08;98616.44;7305664;19;130138;-47
2021/12/03 03:01:28;;;;;;;15.25;2.72;;;;;;;24.20;51.52;98612.09;7303519;19;129661;-48
2021/12/03 03:03:54;;;;;;;39.50;4.60;;;;;;;24.22;51.52;98604.84;7305556;19;129152;-47
2021/12/03 03:06:19;;;;;;;26.07;3.40;;;;;;;24.29;51.55;98610.19;7299297;19;160873;-49
2021/12/03 03:08:45;;;;;;;18.97;2.63;;;;;;;24.36;50.99;98611.91;7305115;19;156972;-48
2021/12/03 03:11:10;;;;;;;43.97;6.45;;;;;;;24.31;51.33;98589.81;7305932;19;129100;-50
2021/12/03 03:13:36;;;;;;;29.40;3.75;;;;;;;24.38;51.42;98609.94;7306678;19;129659;-49
2021/12/03 03:16:04;;;;;;;111.50;12.60;;;;;;;24.37;51.29;98607.47;7299098;19;129518;-47
2021/12/03 03:18:30;;;;;;;26.50;3.28;;;;;;;24.29;51.27;98602.31;7305689;19;130482;-47
2021/12/03 03:23:35;;;;;;;17.38;3.08;;;;;;;24.23;51.16;98614.34;7308072;19;130289;-50
2021/12/03 03:26:00;;;;;;;18.23;2.65;;;;;;;24.17;51.52;98622.13;7308949;19;129285;-50
2021/12/03 03:28:26;;;;;;;14.37;2.30;;;;;;;24.10;51.63;98613.34;7305893;19;151776;-48
2021/12/03 03:30:54;;;;;;;19.40;2.73;;;;;;;23.99;52.27;98613.78;7315571;19;129519;-48
2021/12/03 03:33:20;;;;;;;27.00;3.92;;;;;;;23.99;52.68;98625.13;7309624;19;129601;-50
2021/12/03 03:35:45;;;;;;;15.13;2.43;;;;;;;23.91;53.20;98622.53;7311623;19;129542;-50
2021/12/03 03:38:12;;;;;;;19.70;2.42;;;;;;;23.87;52.62;98626.50;7310564;19;129725;-49
2021/12/03 03:40:40;;;;;;;17.55;2.28;;;;;;;23.84;53.82;98631.28;7314912;19;129128;-49
2021/12/03 03:43:06;;;;;;;29.58;3.65;;;;;;;23.81;53.37;98629.84;7310173;19;129576;-48
2021/12/03 03:45:34;;;;;;;23.05;3.33;;;;;;;23.81;53.87;98632.47;7310159;19;130576;-48
2021/12/03 03:48:00;;;;;;;16.90;2.17;;;;;;;23.70;53.84;98617.13;7313432;19;129160;-47
2021/12/03 03:50:26;;;;;;;33.47;4.28;;;;;;;23.76;54.10;98626.09;7310713;19;129277;-49
2021/12/03 03:52:53;;;;;;;22.90;3.40;;;;;;;23.71;53.78;98637.13;7312013;19;129479;-49
2021/12/03 03:55:19;;;;;;;15.27;2.45;;;;;;;23.89;52.42;98629.75;7309697;19;130816;-49
2021/12/03 03:57:49;;;;;;;21.25;2.88;;;;;;;24.26;51.60;98637.63;7310595;19;130881;-49
2021/12/03 04:00:19;;;;;;;18.98;2.53;;;;;;;24.70;50.57;98639.47;7313305;19;129604;-50
2021/12/03 04:02:45;;;;;;;15.25;2.10;;;;;;;25.12;49.38;98644.88;7307663;19;129802;-49
2021/12/03 04:05:10;;;;;;;16.75;2.22;;;;;;;25.58;48.17;98651.47;7311229;19;129907;-49
2021/12/03 04:07:37;;;;;;;14.80;2.03;;;;;;;26.03;47.41;98648.44;7308257;19;129263;-53
2021/12/03 04:10:05;;;;;;;17.40;2.17;;;;;;;26.52;46.22;98657.09;7312699;19;128869;-49
2021/12/03 04:12:30;;;;;;;34.67;4.10;;;;;;;26.82;45.37;98657.69;7308277;19;130324;-50
2021/12/03 04:14:56;;;;;;;16.63;2.13;;;;;;;27.12;44.54;98660.84;7308345;19;129526;-50
2021/12/03 04:17:21;;;;;;;24.47;3.30;;;;;;;27.35;44.16;98653.44;7308595;19;159176;-49
2021/12/03 04:19:46;;;;;;;19.07;2.50;;;;;;;27.52;43.46;98646.78;7313202;19;129092;-49
2021/12/03 04:22:17;;;;;;;19.60;2.55;;;;;;;27.66;43.45;98654.53;7311242;19;150141;-49
2021/12/03 04:24:43;;;;;;;10.68;1.77;;;;;;;27.73;42.78;98641.31;7306478;19;130535;-49
2021/12/03 04:27:08;;;;;;;26.30;3.10;;;;;;;28.00;42.56;98653.53;7307799;19;159010;-49
2021/12/03 04:29:33;;;;;;;16.50;1.90;;;;;;;28.14;41.82;98648.06;7308620;19;155022;-49
2021/12/03 04:31:59;;;;;;;29.53;3.87;;;;;;;28.20;41.96;98653.56;7311009;19;129378;-49
2021/12/03 04:34:25;;;;;;;30.20;3.42;;;;;;;28.28;42.18;98656.78;7303797;19;138450;-49
2021/12/03 04:36:50;;;;;;;25.70;3.20;;;;;;;28.20;42.43;98643.78;7311942;19;130119;-49
2021/12/03 04:39:16;;;;;;;34.00;4.17;;;;;;;28.27;41.50;98656.97;7309325;19;153805;-46
2021/12/03 04:41:41;;;;;;;22.47;2.67;;;;;;;28.33;41.60;98664.13;7313165;19;129806;-47
2021/12/03 04:44:06;;;;;;;60.30;7.40;;;;;;;28.40;42.10;98671.00;7304591;19;158505;-48
2021/12/03 04:46:32;;;;;;;24.37;2.77;;;;;;;28.46;41.52;98672.81;7310783;19;130921;-48
2021/12/03 04:48:57;;;;;;;30.90;2.97;;;;;;;28.50;41.53;98665.31;7316596;19;128902;-49
2021/12/03 04:51:23;;;;;;;46.27;5.27;;;;;;;28.37;41.55;98682.00;7310483;19;154833;-49
2021/12/03 04:53:48;;;;;;;30.07;3.77;;;;;;;28.14;41.64;98668.38;7312952;19;140668;-49
2021/12/03 04:56:13;;;;;;;36.07;3.90;;;;;;;27.96;42.47;98684.03;7311344;19;129252;-48
2021/12/03 04:58:38;;;;;;;15.30;1.93;;;;;;;27.69;42.79;98677.06;7309341;19;155428;-49
2021/12/03 05:01:04;;;;;;;28.20;2.90;;;;;;;27.59;43.13;98688.03;7311458;19;154001;-49
2021/12/03 05:03:29;;;;;;;57.03;6.30;;;;;;;27.45;43.46;98696.94;7286798;19;131440;-46
2021/12/03 05:05:57;;;;;;;54.87;7.00;;;;;;;27.35;44.04;98701.78;7299661;19;130814;-48
2021/12/03 05:08:25;;;;;;;28.67;3.35;;;;;;;27.22;44.34;98708.81;7314285;19;128935;-49
2021/12/03 05:10:51;;;;;;;58.53;7.20;;;;;;;27.06;44.97;98695.94;7310899;19;129277;-48
2021/12/03 05:13:29;;;;;;;27.83;2.90;;;;;;;27.00;45.23;98707.28;7308745;19;132327;-49
2021/12/03 05:15:55;;;;;;;26.35;2.67;;;;;;;26.98;45.20;98709.28;7310649;19;129154;-50
2021/12/03 05:18:22;;;;;;;23.10;2.83;;;;;;;26.94;44.80;98711.50;7313237;19;128994;-49
2021/12/03 05:20:50;;;;;;;14.57;1.80;;;;;;;26.92;45.24;98726.72;7312489;19;129383;-50
2021/12/03 05:23:16;;;;;;;26.55;2.92;;;;;;;26.82;45.22;98724.44;7313882;19;130680;-50
2021/12/03 05:25:42;;;;;;;17.13;1.90;;;;;;;26.78;45.31;98714.47;7312806;19;130402;-49
2021/12/03 05:28:08;;;;;;;20.10;2.60;;;;;;;26.85;45.92;98729.34;7312725;19;130644;-48
2021/12/03 05:30:34;;;;;;;18.30;2.20;;;;;;;26.83;45.16;98728.72;7313622;19;129314;-48
2021/12/03 05:32:59;;;;;;;16.77;1.73;;;;;;;26.80;45.89;98733.56;7313462;19;129634;-48
2021/12/03 05:35:26;;;;;;;23.17;2.60;;;;;;;26.74;45.11;98724.59;7311845;19;129674;-49
2021/12/03 05:37:52;;;;;;;16.67;1.95;;;;;;;26.85;45.06;98742.53;7313732;19;129249;-48
2021/12/03 05:40:17;;;;;;;23.87;2.43;;;;;;;26.84;45.50;98743.50;7314027;19;128969;-49
2021/12/03 05:42:45;;;;;;;12.67;1.50;;;;;;;26.80;45.40;98728.28;7311342;19;132531;-49
2021/12/03 05:45:17;;;;;;;14.07;1.75;;;;;;;26.90;45.23;98742.75;7310448;19;130753;-48
2021/12/03 05:47:43;;;;;;;18.83;1.95;;;;;;;26.86;45.39;98746.78;7312977;19;129358;-48
2021/12/03 05:50:10;;;;;;;16.03;2.03;;;;;;;26.84;45.14;98748.78;7312497;19;129128;-48
2021/12/03 05:52:36;;;;;;;21.83;2.67;;;;;;;26.84;45.07;98748.78;7313082;19;129964;-48
2021/12/03 05:55:03;;;;;;;13.73;1.57;;;;;;;26.83;45.85;98755.09;7311370;19;129345;-49
2021/12/03 05:57:28;;;;;;;26.70;2.97;;;;;;;26.84;45.24;98756.69;7314401;19;129221;-48
2021/12/03 05:59:53;;;;;;;18.13;2.10;;;;;;;26.82;45.42;98760.56;7311704;19;154267;-48
2021/12/03 06:02:20;;;;;;;21.13;2.40;;;;;;;26.70;45.56;98739.19;7310646;19;158887;-48
2021/12/03 06:04:46;;;;;;;17.13;1.77;;;;;;;26.77;45.18;98755.88;7311464;19;130396;-48
2021/12/03 06:07:12;;;;;;;24.27;2.77;;;;;;;26.78;45.70;98752.22;7310283;19;130890;-48
2021/12/03 06:09:37;;;;;;;16.90;1.83;;;;;;;26.80;45.67;98750.19;7312005;19;128895;-48
2021/12/03 06:12:03;;;;;;;18.00;2.03;;;;;;;26.82;45.44;98758.72;7312264;19;129826;-46
2021/12/03 06:14:29;;;;;;;40.60;4.50;;;;;;;26.74;45.51;98756.22;7308071;19;129423;-49
2021/12/03 06:16:55;;;;;;;17.02;1.85;;;;;;;26.76;45.73;98756.84;7311623;19;129592;-48
2021/12/03 06:19:21;;;;;;;30.55;3.40;;;;;;;26.80;45.17;98760.75;7312149;19;129453;-47
2021/12/03 06:21:46;;;;;;;16.50;1.83;;;;;;;26.80;45.65;98758.13;7310237;19;129626;-47
2021/12/03 06:24:11;;;;;;;17.40;1.90;;;;;;;26.80;45.77;98773.94;7309719;19;157059;-47
2021/12/03 06:26:37;;;;;;;20.03;2.37;;;;;;;26.85;45.72;98768.91;7308392;19;129136;-48
2021/12/03 06:29:03;;;;;;;18.30;2.00;;;;;;;26.79;45.50;98769.66;7309883;19;154048;-46
2021/12/03 06:31:28;;;;;;;17.23;2.10;;;;;;;26.82;45.91;98779.81;7312664;19;129801;-48
2021/12/03 06:33:53;;;;;;;28.60;3.60;;;;;;;26.85;45.57;98779.47;7308756;19;159599;-47
2021/12/03 06:36:19;;;;;;;31.63;3.80;;;;;;;26.89;45.84;98796.50;7307388;19;129513;-48
2021/12/03 06:38:45;;;;;;;16.30;1.75;;;;;;;26.89;45.30;98788.59;7307695;19;130276;-47
2021/12/03 06:41:10;;;;;;;49.33;6.13;;;;;;;26.81;45.42;98791.38;7296762;19;155485;-48
2021/12/03 06:43:35;;;;;;;14.97;1.63;;;;;;;26.89;45.43;98796.50;7302761;19;158820;-47
2021/12/03 06:46:01;;;;;;;99.17;11.47;;;;;;;26.89;45.34;98795.72;7296299;19;130667;-47
2021/12/03 06:48:26;;;;;;;46.93;5.37;;;;;;;26.83;45.57;98786.75;7298182;19;130441;-47
2021/12/03 06:50:52;;;;;;;29.10;3.20;;;;;;;26.87;45.53;98797.72;7303921;19;159616;-48
2021/12/03 06:53:21;;;;;;;22.37;2.87;;;;;;;26.88;45.45;98800.16;7304675;19;130523;-47
2021/12/03 06:55:49;;;;;;;123.28;15.00;;;;;;;26.89;45.66;98799.16;7302750;19;129273;-48
2021/12/03 06:58:18;;;;;;;12.32;1.40;;;;;;;26.83;45.57;98791.19;7311341;19;129372;-49
2021/12/03 07:00:45;;;;;;;13.30;1.50;;;;;;;26.90;45.51;98806.06;7317666;19;129726;-49
2021/12/03 07:03:10;;;;;;;38.58;4.18;;;;;;;26.92;45.59;98816.44;7311511;19;130387;-47
2021/12/03 07:05:36;;;;;;;122.03;14.87;;;;;;;26.89;45.82;98825.53;7302159;19;129301;-47
2021/12/03 07:08:01;;;;;;;27.30;2.83;;;;;;;26.88;45.65;98826.53;7308608;19;130518;-47
2021/12/03 07:10:27;;;;;;;24.63;2.60;;;;;;;26.89;45.23;98827.38;7315237;19;130111;-48
2021/12/03 07:12:53;;;;;;;19.43;2.07;;;;;;;26.92;45.23;98833.06;7307027;19;129580;-48
2021/12/03 07:15:18;;;;;;;31.57;3.67;;;;;;;26.93;45.44;98836.50;7313532;19;128984;-49
2021/12/03 07:17:45;;;;;;;30.27;3.90;;;;;;;26.91;45.63;98836.72;7305432;19;129299;-48
2021/12/03 07:20:10;;;;;;;;;;;;;;;26.85;45.92;98834.03;7315507;19;130733;-48
2021/12/03 07:22:35;;;;;;;19.58;2.17;;;;;;;26.91;45.61;98841.16;7314213;19;131953;-47
2021/12/03 07:25:01;;;;;;;17.50;2.13;;;;;;;26.91;45.73;98841.97;7309454;19;156015;-50
2021/12/03 07:27:26;;;;;;;18.50;2.27;;;;;;;26.88;45.21;98842.38;7311671;19;129982;-49
2021/12/03 07:29:52;;;;;;;35.38;4.32;;;;;;;26.78;45.51;98839.25;7312763;19;156907;-47
2021/12/03 07:32:19;;;;;;;22.17;2.70;;;;;;;26.85;45.47;98848.03;7314815;19;133544;-49
2021/12/03 07:34:45;;;;;;;16.33;1.85;;;;;;;26.78;45.33;98833.97;7311274;19;129754;-48
2021/12/03 07:37:10;;;;;;;15.63;1.83;;;;;;;26.87;45.57;98846.00;7310852;19;130734;-49
2021/12/03 07:39:36;;;;;;;18.53;2.17;;;;;;;26.96;45.79;98844.03;7314085;19;130258;-48
2021/12/03 07:42:03;;;;;;;20.37;2.17;;;;;;;26.94;45.17;98851.31;7312557;19;130425;-48
2021/12/03 07:44:28;;;;;;;23.27;2.90;;;;;;;26.90;45.09;98848.28;7313675;19;129092;-48
2021/12/03 07:46:53;;;;;;;19.57;2.53;;;;;;;26.91;45.14;98852.53;7309240;19;132212;-48
2021/12/03 07:49:21;;;;;;;23.63;2.73;;;;;;;26.92;45.57;98848.09;7313888;19;129672;-47
2021/12/03 07:51:46;;;;;;;29.27;3.45;;;;;;;26.92;45.44;98843.59;7309659;19;130354;-49
2021/12/03 07:54:11;;;;;;;15.57;1.73;;;;;;;26.87;45.88;98838.09;7313528;19;153176;-47
2021/12/03 07:56:36;;;;;;;21.13;2.30;;;;;;;26.92;45.59;98843.59;7312605;19;154090;-49
2021/12/03 07:59:04;;;;;;;13.77;1.60;;;;;;;26.93;45.81;98839.97;7310561;19;159154;-47
2021/12/03 08:01:29;;;;;;;52.72;5.78;;;;;;;26.96;45.39;98845.88;7312909;19;129991;-47
2021/12/03 08:03:55;;;;;;;30.00;3.10;;;;;;;26.93;45.20;98850.53;7310934;19;155919;-48
2021/12/03 08:06:20;;;;;;;20.67;2.57;;;;;;;26.99;45.37;98848.94;7309655;19;129117;-48
2021/12/03 08:08:45;;;;;;;30.73;3.87;;;;;;;27.00;45.18;98860.31;7303789;19;130481;-48
2021/12/03 08:11:11;;;;;;;20.63;2.40;;;;;;;27.02;45.21;98863.56;7310502;19;132389;-49
2021/12/03 08:13:36;;;;;;;19.17;2.03;;;;;;;26.98;45.16;98863.13;7308035;19;155872;-49
2021/12/03 08:16:03;;;;;;;49.83;6.33;;;;;;;26.95;45.89;98868.81;7300355;19;130512;-49
2021/12/03 08:18:28;;;;;;;35.38;4.30;;;;;;;26.92;45.08;98864.72;7306027;19;130961;-49
2021/12/03 08:20:53;;;;;;;248.30;30.37;;;;;;;26.99;45.08;98875.31;7296442;19;132110;-45
2021/12/03 08:23:19;;;;;;;23.70;3.07;;;;;;;26.99;45.46;98870.03;7304310;19;147274;-51
2021/12/03 08:28:17;;;;;;;12.77;1.80;;;;;;;26.91;45.52;98871.00;7301798;19;130442;-47
2021/12/03 08:30:42;;;;;;;41.13;4.90;;;;;;;26.95;45.59;98866.16;7312878;19;129997;-48
2021/12/03 08:33:07;;;;;;;14.80;1.90;;;;;;;26.97;45.40;98876.53;7301452;19;129531;-49
2021/12/03 08:35:32;;;;;;;22.93;3.13;;;;;;;26.98;45.48;98878.13;7308064;19;136184;-52
2021/12/03 08:37:58;;;;;;;41.70;4.97;;;;;;;26.90;45.24;98864.09;7284872;19;132983;-49
2021/12/03 08:40:24;;;;;;;40.43;4.83;;;;;;;26.94;45.07;98878.53;7301780;19;130446;-50
2021/12/03 08:42:50;;;;;;;32.47;3.67;;;;;;;26.97;45.14;98876.53;7293588;19;130247;-49
2021/12/03 08:45:18;;;;;;;23.43;2.50;;;;;;;26.88;45.54;98868.75;7304737;19;129389;-50
2021/12/03 08:47:48;;;;;;;23.80;2.50;;;;;;;26.99;45.37;98891.13;7303161;19;131893;-49
2021/12/03 08:50:17;;;;;;;26.92;2.75;;;;;;;27.06;45.48;98888.53;7310903;19;131169;-49
2021/12/03 08:53:08;;;;;;;16.05;1.90;;;;;;;27.03;45.28;98891.56;7310140;19;130057;-49
2021/12/03 08:55:34;;;;;;;36.53;4.30;;;;;;;27.04;45.42;98888.75;7304110;19;129815;-47
2021/12/03 08:58:00;;;;;;;111.43;13.10;;;;;;;27.04;45.32;98898.50;7297865;19;129410;-48
2021/12/03 09:00:25;;;;;;;31.00;3.50;;;;;;;27.02;45.23;98895.22;7310286;19;129240;-47
2021/12/03 09:02:50;;;;;;;16.30;1.93;;;;;;;27.01;44.98;98896.25;7313299;19;132001;-48
2021/12/03 09:05:16;;;;;;;31.93;3.80;;;;;;;26.99;45.43;98896.41;7303590;19;154270;-48
2021/12/03 09:07:42;;;;;;;20.17;2.23;;;;;;;27.00;45.48;98900.72;7311193;19;130146;-47
2021/12/03 09:10:11;;;;;;;23.60;2.77;;;;;;;26.99;45.87;98903.53;7305427;19;130777;-46
2021/12/03 09:12:37;;;;;;;15.95;1.88;;;;;;;26.99;45.23;98906.19;7312552;19;129955;-48
2021/12/03 09:15:07;;;;;;;14.83;1.67;;;;;;;26.94;45.54;98899.63;7304737;19;129635;-48
2021/12/03 09:17:46;;;;;;;20.98;2.58;;;;;;;26.97;45.59;98902.91;7313950;19;130679;-48
2021/12/03 09:22:49;;;;;;;35.33;4.82;;;;;;;26.94;45.48;98902.28;7304269;19;129807;-47
2021/12/03 09:25:22;;;;;;;23.05;2.90;;;;;;;27.00;45.61;98897.25;7296493;19;131572;-49
2021/12/03 09:27:48;;;;;;;18.33;2.30;;;;;;;26.94;46.04;98899.63;7306040;19;130103;-50
2021/12/03 09:30:15;;;;;;;30.92;4.18;;;;;;;26.97;45.57;98902.91;7303398;19;129587;-49
2021/12/03 09:32:45;;;;;;;24.80;2.80;;;;;;;26.97;45.40;98908.19;7309515;19;130253;-48
2021/12/03 09:35:11;;;;;;;15.27;1.95;;;;;;;27.00;45.38;98902.50;7291913;19;131179;-51
2021/12/03 09:37:36;;;;;;;31.73;3.87;;;;;;;26.98;45.43;98896.59;7305109;19;131101;-49
2021/12/03 09:40:05;;;;;;;44.53;6.57;;;;;;;26.97;45.41;98898.44;7296608;19;131169;-51
2021/12/03 09:42:34;;;;;;;59.88;7.80;;;;;;;26.93;45.36;98887.47;7292917;19;130082;-49
2021/12/03 09:44:59;;;;;;;24.45;3.25;;;;;;;27.02;45.76;98903.16;7295347;19;132156;-47
2021/12/03 09:47:25;;;;;;;20.30;2.63;;;;;;;26.98;45.10;98900.06;7303193;19;158409;-49
2021/12/03 09:49:54;;;;;;;275.63;35.10;;;;;;;27.01;45.49;98893.63;7146924;19;2872256;-49
2021/12/03 09:52:48;;;;;;;26.58;2.97;;;;;;;27.02;45.36;98895.22;7306098;19;128951;-49
2021/12/03 09:55:15;;;;;;;184.70;26.40;;;;;;;26.97;45.65;98892.34;7290200;19;129690;-48
2021/12/03 09:57:46;;;;;;;;;;;;;;;26.94;45.37;98898.81;7305618;19;130311;-48
2021/12/03 10:00:31;;;;;;;33.22;3.83;;;;;;;27.05;45.41;98889.56;7307035;19;130288;-47
2021/12/03 10:09:13;;;;;;;22.17;2.20;;;;;;;27.11;45.50;98899.34;7303301;19;129423;-48
2021/12/03 10:13:39;;;;;;;27.67;3.88;;;;;;;27.21;44.92;98891.91;7301522;19;130942;-47
2021/12/03 10:18:45;;;;;;;19.55;2.08;;;;;;;27.23;45.18;98887.25;7297948;19;131797;-49
2021/12/03 10:21:39;;;;;;;20.92;2.38;;;;;;;27.23;45.31;98876.69;7307794;19;129820;-49
2021/12/03 10:30:09;;;;;;;15.25;1.67;;;;;;;27.23;45.34;98869.59;7305436;19;129336;-49
2021/12/03 10:32:44;;;;;;;21.00;2.10;;;;;;;27.21;44.50;98860.25;7311692;19;131453;-49
2021/12/03 10:38:14;;;;;;;32.47;3.47;;;;;;;27.35;45.07;98870.75;7311889;19;129765;-49
2021/12/03 10:46:23;;;;;;;24.75;3.03;;;;;;;27.31;44.76;98858.91;7304600;19;131045;-49
2021/12/03 10:52:09;;;;;;;57.75;5.88;;;;;;;27.34;44.36;98853.25;7304579;19;131863;-47
2021/12/03 11:03:38;;;;;;;10.82;1.65;;;;;;;27.28;44.70;98863.78;7306052;19;130224;-71
2021/12/03 11:33:51;;;;;;;37.75;7.20;;;;;;;27.33;45.04;98834.97;7306982;19;129930;-53
2021/12/03 11:38:57;;;;;;;28.80;5.80;;;;;;;27.39;44.82;98834.19;7294280;19;130526;-48
2021/12/03 11:42:03;;;;;;;36.45;7.68;;;;;;;27.41;44.73;98834.81;7301524;19;131440;-46
2021/12/03 11:47:29;;;;;;;7.72;1.60;;;;;;;27.35;45.15;98817.94;7316743;19;129470;-47
2021/12/03 11:50:29;;;;;;;10.13;1.50;;;;;;;27.36;45.05;98819.56;7308765;19;130471;-48
2021/12/03 12:16:55;;;;;;;36.47;4.22;;;;;;;27.55;44.19;98815.38;7291385;19;129717;-50
2021/12/03 12:33:59;;;;;;;8.43;1.73;;;;;;;28.24;42.72;98806.25;7295632;19;129762;-69
2021/12/03 12:35:54;;;;;;;54.78;10.02;;;;;;;28.36;42.14;98804.66;7306952;19;131002;-72
2021/12/03 13:07:01;;;;;;;61.78;7.78;;;;;;;28.14;40.06;98808.47;7303953;19;130119;-49
2021/12/03 13:08:58;;;;;;;25.63;2.80;;;;;;;28.12;40.04;98811.31;7299057;19;130440;-51
2021/12/03 13:19:59;;;;;;;18.00;2.85;;;;;;;28.16;40.15;98812.53;7290092;19;130069;-50
2021/12/03 13:28:37;;;;;;;43.95;4.80;;;;;;;28.07;40.08;98808.47;7309673;19;130673;-46
2021/12/03 13:31:46;;;;;;;24.80;3.17;;;;;;;28.07;40.31;98820.88;7303452;19;130452;-48
2021/12/03 13:34:57;;;;;;;34.60;4.10;;;;;;;27.90;40.22;98823.06;7292767;19;130671;-47
2021/12/03 14:04:16;;;;;;;178.88;18.60;;;;;;;28.17;39.26;98789.56;7292523;19;131590;-47
2021/12/03 14:07:11;;;;;;;47.63;5.00;;;;;;;28.23;39.38;98793.25;7292530;19;130488;-45
2021/12/03 14:32:38;;;;;;;27.58;3.50;;;;;;;28.08;39.61;98804.00;7302722;19;129534;-50
2021/12/03 14:41:55;;;;;;;41.73;5.03;;;;;;;28.15;39.15;98804.81;7295783;19;129291;-49
2021/12/03 14:49:42;;;;;;;33.70;3.80;;;;;;;28.15;39.54;98810.09;7300554;19;131319;-47
2021/12/03 14:52:16;;;;;;;38.28;4.38;;;;;;;28.12;39.74;98810.50;7299376;19;131247;-48
2021/12/03 14:57:40;;;;;;;33.65;4.22;;;;;;;28.14;38.93;98808.47;7287477;19;157031;-50
2021/12/03 15:00:31;;;;;;;18.45;2.08;;;;;;;28.10;39.37;98801.94;7307140;19;129275;-52
2021/12/03 15:06:28;;;;;;;22.60;3.47;;;;;;;28.14;39.59;98808.47;7300607;19;130550;-51